Time;durP1;ratioP1;P1;durP2;ratioP2;P2;SDS_P1;SDS_P2;PMS_P1;PMS_P2;Temp;Humidity;BMP_temperature;BMP_pressure;BME280_temperature;BME280_humidity;BME280_pressure;Samples;Min_cycle;Max_cycle;Signal;HPM_P1;HPM_P2
2023/05/14 00:00:34;;;;;;;;;;;11.60;99.90;;;;;;4969582;28;19942;-81
2023/05/14 00:03:01;;;;;;;;;;;11.60;99.90;;;;;;4991468;28;19926;-81
2023/05/14 00:05:28;;;;;;;;;;;11.60;99.90;;;;;;4987593;28;20004;-81
2023/05/14 00:07:55;;;;;;;;;;;11.50;99.90;;;;;;4990216;28;20017;-84
2023/05/14 00:10:23;;;;;;;;;;;11.50;99.90;;;;;;4986656;28;19934;-80
2023/05/14 00:12:51;;;;;;;;;;;11.50;99.90;;;;;;4991096;28;19973;-82
2023/05/14 00:15:17;;;;;;;;;;;11.50;99.90;;;;;;4972330;28;20000;-81
2023/05/14 00:17:44;;;;;;;;;;;11.50;99.90;;;;;;4988524;28;19953;-82
2023/05/14 00:20:12;;;;;;;;;;;11.50;99.90;;;;;;4969253;28;19926;-83
2023/05/14 00:22:39;;;;;;;;;;;11.50;99.90;;;;;;4992548;28;20032;-81
2023/05/14 00:25:07;;;;;;;;;;;11.50;99.90;;;;;;4988310;28;19926;-82
2023/05/14 00:27:36;;;;;;;;;;;11.50;99.90;;;;;;4987473;28;19930;-81
2023/05/14 00:30:04;;;;;;;;;;;11.50;99.90;;;;;;4974521;28;20132;-81
2023/05/14 00:32:31;;;;;;;;;;;11.50;99.90;;;;;;4989576;28;20289;-80
2023/05/14 00:34:58;;;;;;;;;;;11.50;99.90;;;;;;4966134;28;19926;-82
2023/05/14 00:37:25;;;;;;;;;;;11.50;99.90;;;;;;4992814;28;19930;-81
2023/05/14 00:39:51;;;;;;;;;;;11.50;99.90;;;;;;4988669;28;19929;-81
2023/05/14 00:42:19;;;;;;;;;;;11.50;99.90;;;;;;4983653;28;19930;-85
2023/05/14 00:44:47;;;;;;;;;;;11.50;99.90;;;;;;4966680;28;19936;-81
2023/05/14 00:47:14;;;;;;;;;;;11.50;99.90;;;;;;4969539;28;19972;-84
2023/05/14 00:49:42;;;;;;;;;;;11.50;99.90;;;;;;4970915;28;19929;-81
2023/05/14 00:52:10;;;;;;;;;;;11.40;99.90;;;;;;4967874;28;19934;-82
2023/05/14 00:54:37;;;;;;;;;;;11.40;99.90;;;;;;4988694;28;20459;-80
2023/05/14 00:57:04;;;;;;;;;;;11.40;99.90;;;;;;4971163;28;20062;-79
2023/05/14 00:59:32;;;;;;;;;;;11.40;99.90;;;;;;4986002;28;20001;-79
2023/05/14 01:02:00;;;;;;;;;;;11.40;99.90;;;;;;4984882;28;20480;-80
2023/05/14 01:04:27;;;;;;;;;;;11.40;99.90;;;;;;4985657;28;20367;-79
2023/05/14 01:07:01;;;;;;;;;;;11.40;99.90;;;;;;4969474;28;19934;-79
2023/05/14 01:09:32;;;;;;;;;;;11.40;99.90;;;;;;4987615;28;20041;-82
2023/05/14 01:12:01;;;;;;;;;;;11.40;99.90;;;;;;4987734;28;19932;-79
2023/05/14 01:14:33;;;;;;;;;;;11.40;99.90;;;;;;4990008;28;19980;-80
2023/05/14 01:17:05;;;;;;;;;;;11.40;99.90;;;;;;4984060;28;19934;-79
2023/05/14 01:19:35;;;;;;;;;;;11.40;99.90;;;;;;4985036;28;20399;-80
2023/05/14 01:22:03;;;;;;;;;;;11.40;99.90;;;;;;4988138;28;19953;-79
2023/05/14 01:24:30;;;;;;;;;;;11.40;99.90;;;;;;4970608;28;19934;-79
2023/05/14 01:27:01;;;;;;;;;;;11.40;99.90;;;;;;4971078;28;20442;-80
2023/05/14 01:29:29;;;;;;;;;;;11.40;99.90;;;;;;4971126;28;19965;-78
2023/05/14 01:31:57;;;;;;;;;;;11.40;99.90;;;;;;4971221;28;19926;-80
2023/05/14 01:34:25;;;;;;;;;;;11.40;99.90;;;;;;4970849;28;19926;-79
2023/05/14 01:36:53;;;;;;;;;;;11.40;99.90;;;;;;4969365;28;19984;-80
2023/05/14 01:39:22;;;;;;;;;;;11.30;99.90;;;;;;4970043;28;19926;-79
2023/05/14 01:41:49;;;;;;;;;;;11.30;99.90;;;;;;4970076;28;20367;-79
2023/05/14 01:44:17;;;;;;;;;;;11.30;99.90;;;;;;4973286;28;19934;-80
2023/05/14 01:46:46;;;;;;;;;;;11.30;99.90;;;;;;4968799;28;19948;-80
2023/05/14 01:49:14;;;;;;;;;;;11.30;99.90;;;;;;4987406;28;19926;-79
2023/05/14 01:51:41;;;;;;;;;;;11.30;99.90;;;;;;4964870;28;19926;-83
2023/05/14 01:54:08;;;;;;;;;;;11.30;99.90;;;;;;4983102;28;19926;-80
2023/05/14 01:56:37;;;;;;;;;;;11.30;99.90;;;;;;4969736;28;19970;-82
2023/05/14 01:59:04;;;;;;;;;;;11.30;99.90;;;;;;4970051;28;20008;-81
2023/05/14 02:01:31;;;;;;;;;;;11.30;99.90;;;;;;4983331;28;19930;-80
2023/05/14 02:03:57;;;;;;;;;;;11.30;99.90;;;;;;4971926;28;19930;-79
2023/05/14 02:06:24;;;;;;;;;;;11.30;99.90;;;;;;4968144;28;20524;-80
2023/05/14 02:08:51;;;;;;;;;;;11.30;99.90;;;;;;4964668;28;19925;-79
2023/05/14 02:11:19;;;;;;;;;;;11.30;99.90;;;;;;4965780;28;20124;-80
2023/05/14 02:13:47;;;;;;;;;;;11.30;99.90;;;;;;4970937;28;20183;-80
2023/05/14 02:16:14;;;;;;;;;;;11.30;99.90;;;;;;4985281;28;19934;-81
2023/05/14 02:18:41;;;;;;;;;;;11.30;99.90;;;;;;4985523;28;20254;-81
2023/05/14 02:21:08;;;;;;;;;;;11.30;99.90;;;;;;4967557;28;20244;-79
2023/05/14 02:23:36;;;;;;;;;;;11.20;99.90;;;;;;4988492;28;20029;-81
2023/05/14 02:26:03;;;;;;;;;;;11.30;99.90;;;;;;4968512;28;20308;-79
2023/05/14 02:28:30;;;;;;;;;;;11.30;99.90;;;;;;4964471;28;19936;-82
2023/05/14 02:31:00;;;;;;;;;;;11.30;99.90;;;;;;4960353;28;20403;-80
2023/05/14 02:33:27;;;;;;;;;;;11.30;99.90;;;;;;4963132;28;20793;-82
2023/05/14 02:35:53;;;;;;;;;;;11.30;99.90;;;;;;4967253;28;19926;-79
2023/05/14 02:38:20;;;;;;;;;;;11.30;99.90;;;;;;4979992;28;19969;-79
2023/05/14 02:40:50;;;;;;;;;;;11.20;99.90;;;;;;4983851;28;19926;-83
2023/05/14 02:43:16;;;;;;;;;;;11.20;99.90;;;;;;4968578;28;19926;-80
2023/05/14 02:45:43;;;;;;;;;;;11.20;99.90;;;;;;4967886;28;19933;-81
2023/05/14 02:48:12;;;;;;;;;;;11.20;99.90;;;;;;4969725;28;19926;-81
2023/05/14 02:50:38;;;;;;;;;;;11.20;99.90;;;;;;4971880;28;20088;-79
2023/05/14 02:53:08;;;;;;;;;;;11.20;99.90;;;;;;4968953;28;20498;-81
2023/05/14 02:55:35;;;;;;;;;;;11.20;99.90;;;;;;4986425;28;20415;-80
2023/05/14 02:58:02;;;;;;;;;;;11.20;99.90;;;;;;4982513;28;20363;-81
2023/05/14 03:00:29;;;;;;;;;;;11.20;99.90;;;;;;4969528;28;19934;-82
2023/05/14 03:02:56;;;;;;;;;;;11.20;99.90;;;;;;4985744;28;19929;-79
2023/05/14 03:05:24;;;;;;;;;;;11.20;99.90;;;;;;4982099;28;19933;-79
2023/05/14 03:07:52;;;;;;;;;;;11.20;99.90;;;;;;4974748;28;19926;-80
2023/05/14 03:10:20;;;;;;;;;;;11.20;99.90;;;;;;4988112;28;19925;-81
2023/05/14 03:12:48;;;;;;;;;;;11.20;99.90;;;;;;4988578;28;19926;-80
2023/05/14 03:15:15;;;;;;;;;;;11.20;99.90;;;;;;4983627;28;20321;-80
2023/05/14 03:17:42;;;;;;;;;;;11.20;99.90;;;;;;4966774;28;19967;-80
2023/05/14 03:20:10;;;;;;;;;;;11.20;99.90;;;;;;4986761;28;19969;-79
2023/05/14 03:22:38;;;;;;;;;;;11.20;99.90;;;;;;4963871;28;19926;-78
2023/05/14 03:25:05;;;;;;;;;;;11.20;99.90;;;;;;4984647;28;20415;-79
2023/05/14 03:27:33;;;;;;;;;;;11.20;99.90;;;;;;4971233;28;19952;-80
2023/05/14 03:30:00;;;;;;;;;;;11.20;99.90;;;;;;4981042;28;19926;-83
2023/05/14 03:32:27;;;;;;;;;;;11.20;99.90;;;;;;4970900;28;19988;-80
2023/05/14 03:34:54;;;;;;;;;;;11.20;99.90;;;;;;4984639;28;19933;-80
2023/05/14 03:37:21;;;;;;;;;;;11.20;99.90;;;;;;4972691;28;19930;-82
2023/05/14 03:39:49;;;;;;;;;;;11.20;99.90;;;;;;4983600;28;19926;-80
2023/05/14 03:42:16;;;;;;;;;;;11.20;99.90;;;;;;4989043;28;19984;-79
2023/05/14 03:44:43;;;;;;;;;;;11.20;99.90;;;;;;4976658;28;19984;-79
2023/05/14 03:47:10;;;;;;;;;;;11.20;99.90;;;;;;4970563;28;19926;-80
2023/05/14 03:49:37;;;;;;;;;;;11.10;99.90;;;;;;4975640;28;20277;-80
2023/05/14 03:52:05;;;;;;;;;;;11.10;99.90;;;;;;4972380;28;19926;-81
2023/05/14 03:54:31;;;;;;;;;;;11.20;99.90;;;;;;4981929;28;19926;-80
2023/05/14 03:57:02;;;;;;;;;;;11.20;99.90;;;;;;4974458;28;19930;-80
2023/05/14 03:59:29;;;;;;;;;;;11.20;99.90;;;;;;4974056;28;19933;-79
2023/05/14 04:01:56;;;;;;;;;;;11.10;99.90;;;;;;4967138;28;20359;-79
2023/05/14 04:04:24;;;;;;;;;;;11.10;99.90;;;;;;4977913;28;20016;-79
2023/05/14 04:06:51;;;;;;;;;;;11.10;99.90;;;;;;4974622;28;19926;-80
2023/05/14 04:09:19;;;;;;;;;;;11.10;99.90;;;;;;4969054;28;20077;-80
2023/05/14 04:11:46;;;;;;;;;;;11.10;99.90;;;;;;4975073;28;20020;-79
2023/05/14 04:14:14;;;;;;;;;;;11.10;99.90;;;;;;4971457;28;19926;-79
2023/05/14 04:16:43;;;;;;;;;;;11.10;99.90;;;;;;4968933;28;20320;-80
2023/05/14 04:19:19;;;;;;;;;;;11.10;99.90;;;;;;4987494;28;19988;-79
2023/05/14 04:21:46;;;;;;;;;;;11.10;99.90;;;;;;4967966;28;20344;-79
2023/05/14 04:24:12;;;;;;;;;;;11.10;99.90;;;;;;4988905;28;19933;-80
2023/05/14 04:26:39;;;;;;;;;;;11.10;99.90;;;;;;4982177;28;19997;-80
2023/05/14 04:29:06;;;;;;;;;;;11.10;99.90;;;;;;4971736;28;19933;-79
2023/05/14 04:31:34;;;;;;;;;;;11.10;99.90;;;;;;4987764;28;19930;-79
2023/05/14 04:34:01;;;;;;;;;;;11.10;99.90;;;;;;4973084;28;19937;-81
2023/05/14 04:36:28;;;;;;;;;;;11.10;99.90;;;;;;4988046;28;19999;-80
2023/05/14 04:38:55;;;;;;;;;;;11.10;99.90;;;;;;4976557;28;20389;-78
2023/05/14 04:41:22;;;;;;;;;;;11.10;99.90;;;;;;4973318;28;19933;-80
2023/05/14 04:43:49;;;;;;;;;;;11.10;99.90;;;;;;4964935;28;19984;-80
2023/05/14 04:46:16;;;;;;;;;;;11.10;99.90;;;;;;4984247;28;19930;-80
2023/05/14 04:48:44;;;;;;;;;;;11.10;99.90;;;;;;4979931;28;19926;-81
2023/05/14 04:51:11;;;;;;;;;;;11.10;99.90;;;;;;4988087;28;20005;-79
2023/05/14 04:53:38;;;;;;;;;;;11.10;99.90;;;;;;4982565;28;19944;-83
2023/05/14 04:56:05;;;;;;;;;;;11.10;99.90;;;;;;4971213;28;20200;-79
2023/05/14 04:58:32;;;;;;;;;;;11.10;99.90;;;;;;4987410;28;19984;-80
2023/05/14 05:01:00;;;;;;;;;;;11.10;99.90;;;;;;4967439;28;19934;-80
2023/05/14 05:03:27;;;;;;;;;;;11.10;99.90;;;;;;4989378;28;20020;-80
2023/05/14 05:05:55;;;;;;;;;;;11.10;99.90;;;;;;4984951;28;19953;-80
2023/05/14 05:08:22;;;;;;;;;;;11.00;99.90;;;;;;4980812;28;19929;-79
2023/05/14 05:10:49;;;;;;;;;;;11.10;99.90;;;;;;4984242;28;19932;-81
2023/05/14 05:13:16;;;;;;;;;;;11.10;99.90;;;;;;4978584;28;19976;-81
2023/05/14 05:15:42;;;;;;;;;;;11.10;99.90;;;;;;4987962;28;20021;-83
2023/05/14 05:18:09;;;;;;;;;;;11.00;99.90;;;;;;4968943;28;19961;-80
2023/05/14 05:20:36;;;;;;;;;;;11.10;99.90;;;;;;4992235;28;19929;-80
2023/05/14 05:23:05;;;;;;;;;;;11.10;99.90;;;;;;4985814;28;20025;-79
2023/05/14 05:25:31;;;;;;;;;;;11.10;99.90;;;;;;4974356;28;19925;-79
2023/05/14 05:27:58;;;;;;;;;;;11.00;99.90;;;;;;4966701;28;20385;-79
2023/05/14 05:30:25;;;;;;;;;;;11.10;99.90;;;;;;4972778;28;19926;-81
2023/05/14 05:32:52;;;;;;;;;;;11.00;99.90;;;;;;4986521;28;19926;-81
2023/05/14 05:35:19;;;;;;;;;;;11.10;99.90;;;;;;4979133;28;19968;-80
2023/05/14 05:37:46;;;;;;;;;;;11.00;99.90;;;;;;4987618;28;19973;-80
2023/05/14 05:40:14;;;;;;;;;;;11.00;99.90;;;;;;4991008;28;19964;-81
2023/05/14 05:42:41;;;;;;;;;;;11.00;99.90;;;;;;4983857;28;19934;-79
2023/05/14 05:45:12;;;;;;;;;;;11.00;99.90;;;;;;4985464;28;20281;-79
2023/05/14 05:47:39;;;;;;;;;;;11.00;99.90;;;;;;4988136;28;19926;-79
2023/05/14 05:50:07;;;;;;;;;;;11.00;99.90;;;;;;4963104;28;19926;-80
2023/05/14 05:52:34;;;;;;;;;;;11.00;99.90;;;;;;4970669;28;20467;-81
2023/05/14 05:55:01;;;;;;;;;;;11.00;99.90;;;;;;4976510;28;19930;-81
2023/05/14 05:57:29;;;;;;;;;;;11.00;99.90;;;;;;4985909;28;20486;-82
2023/05/14 05:59:56;;;;;;;;;;;11.00;99.90;;;;;;4983908;28;20021;-83
2023/05/14 06:02:23;;;;;;;;;;;11.00;99.90;;;;;;4981704;28;20448;-79
2023/05/14 06:04:51;;;;;;;;;;;11.00;99.90;;;;;;4979710;28;19929;-80
2023/05/14 06:07:18;;;;;;;;;;;11.00;99.90;;;;;;4983027;28;20367;-79
2023/05/14 06:09:45;;;;;;;;;;;11.10;99.90;;;;;;4986684;28;19930;-79
2023/05/14 06:12:12;;;;;;;;;;;11.00;99.90;;;;;;4978206;28;19937;-77
2023/05/14 06:14:40;;;;;;;;;;;11.00;99.90;;;;;;4977288;28;19961;-78
2023/05/14 06:17:07;;;;;;;;;;;11.00;99.90;;;;;;4980573;28;19984;-77
2023/05/14 06:19:34;;;;;;;;;;;11.00;99.90;;;;;;4986552;28;20012;-77
2023/05/14 06:22:01;;;;;;;;;;;11.00;99.90;;;;;;4970442;28;19953;-77
2023/05/14 06:24:28;;;;;;;;;;;11.00;99.90;;;;;;4993414;28;19937;-78
2023/05/14 06:26:55;;;;;;;;;;;11.00;99.90;;;;;;4990171;28;19980;-77
2023/05/14 06:29:22;;;;;;;;;;;11.00;99.90;;;;;;4988195;28;20016;-78
2023/05/14 06:31:50;;;;;;;;;;;11.10;99.90;;;;;;4984003;28;20045;-77
2023/05/14 06:34:17;;;;;;;;;;;11.00;99.90;;;;;;4989448;28;19925;-77
2023/05/14 06:36:47;;;;;;;;;;;11.10;99.90;;;;;;4951269;28;19936;-78
2023/05/14 06:39:13;;;;;;;;;;;11.10;99.90;;;;;;4988813;28;19933;-77
2023/05/14 06:41:40;;;;;;;;;;;11.10;99.90;;;;;;4985796;28;20002;-78
2023/05/14 06:44:14;;;;;;;;;;;11.10;99.90;;;;;;4983260;28;20292;-78
2023/05/14 06:46:40;;;;;;;;;;;11.10;99.90;;;;;;4984643;28;19967;-78
2023/05/14 06:49:14;;;;;;;;;;;11.10;99.90;;;;;;4991343;28;20407;-77
2023/05/14 06:51:41;;;;;;;;;;;11.10;99.90;;;;;;4967044;28;19948;-78
2023/05/14 06:54:08;;;;;;;;;;;11.10;99.90;;;;;;4991594;28;19930;-78
2023/05/14 06:56:35;;;;;;;;;;;11.10;99.90;;;;;;4983254;28;19932;-77
2023/05/14 06:59:02;;;;;;;;;;;11.00;99.90;;;;;;4972416;28;20412;-77
2023/05/14 07:01:29;;;;;;;;;;;11.10;99.90;;;;;;4972844;28;19934;-78
2023/05/14 07:03:56;;;;;;;;;;;11.10;99.90;;;;;;4988543;28;20308;-78
2023/05/14 07:06:24;;;;;;;;;;;11.10;99.90;;;;;;4971456;28;19933;-78
2023/05/14 07:08:52;;;;;;;;;;;11.10;99.90;;;;;;4988556;28;19930;-78
2023/05/14 07:11:18;;;;;;;;;;;11.00;99.90;;;;;;4988401;28;19933;-77
2023/05/14 07:13:45;;;;;;;;;;;11.10;99.90;;;;;;4981741;28;19925;-78
2023/05/14 07:16:12;;;;;;;;;;;11.00;99.90;;;;;;4967770;28;19933;-77
2023/05/14 07:18:39;;;;;;;;;;;11.10;99.90;;;;;;4988272;28;19961;-77
2023/05/14 07:21:06;;;;;;;;;;;11.00;99.90;;;;;;4985104;28;19972;-78
2023/05/14 07:23:37;;;;;;;;;;;11.10;99.90;;;;;;4984513;28;19952;-78
2023/05/14 07:26:04;;;;;;;;;;;11.10;99.90;;;;;;4986481;28;19934;-78
2023/05/14 07:28:31;;;;;;;;;;;11.10;99.90;;;;;;4983070;28;20368;-78
2023/05/14 07:30:58;;;;;;;;;;;11.10;99.90;;;;;;4988650;28;19930;-77
2023/05/14 07:33:25;;;;;;;;;;;11.10;99.90;;;;;;4987656;28;20032;-77
2023/05/14 07:35:52;;;;;;;;;;;11.10;99.90;;;;;;4976265;28;19992;-78
2023/05/14 07:38:19;;;;;;;;;;;11.10;99.90;;;;;;4969934;28;19969;-78
2023/05/14 07:40:48;;;;;;;;;;;11.10;99.90;;;;;;4984902;28;19977;-77
2023/05/14 07:43:16;;;;;;;;;;;11.20;99.90;;;;;;4975880;28;19926;-78
2023/05/14 07:45:42;;;;;;;;;;;11.10;99.90;;;;;;4981956;28;20061;-79
2023/05/14 07:48:10;;;;;;;;;;;11.10;99.90;;;;;;4991363;28;19980;-78
2023/05/14 07:50:37;;;;;;;;;;;11.10;99.90;;;;;;4991437;28;19925;-77
2023/05/14 07:53:03;;;;;;;;;;;11.10;99.90;;;;;;4987237;28;20404;-78
2023/05/14 07:55:30;;;;;;;;;;;11.10;99.90;;;;;;4993692;28;19930;-78
2023/05/14 07:57:58;;;;;;;;;;;11.20;99.90;;;;;;4994101;28;19932;-78
2023/05/14 08:00:25;;;;;;;;;;;11.10;99.90;;;;;;4987703;28;19934;-77
2023/05/14 08:02:52;;;;;;;;;;;11.20;99.90;;;;;;4992846;28;19926;-78
2023/05/14 08:05:19;;;;;;;;;;;11.20;99.90;;;;;;4986251;28;19934;-78
2023/05/14 08:07:46;;;;;;;;;;;11.20;99.90;;;;;;4967594;28;19933;-78
2023/05/14 08:10:14;;;;;;;;;;;11.20;99.90;;;;;;4983235;28;19972;-78
2023/05/14 08:12:41;;;;;;;;;;;11.20;99.90;;;;;;4986411;28;19926;-79
2023/05/14 08:15:10;;;;;;;;;;;11.20;99.90;;;;;;4987420;28;20416;-77
2023/05/14 08:17:37;;;;;;;;;;;11.20;99.90;;;;;;4985857;28;20339;-80
2023/05/14 08:20:06;;;;;;;;;;;11.20;99.90;;;;;;4986552;28;20352;-79
2023/05/14 08:22:33;;;;;;;;;;;11.20;99.90;;;;;;4989863;28;19933;-78
2023/05/14 08:25:02;;;;;;;;;;;11.20;99.90;;;;;;4989978;28;19930;-77
2023/05/14 08:27:29;;;;;;;;;;;11.20;99.90;;;;;;4983586;28;19929;-76
2023/05/14 08:29:56;;;;;;;;;;;11.20;99.90;;;;;;4988278;28;20000;-77
2023/05/14 08:32:24;;;;;;;;;;;11.30;99.90;;;;;;4988488;28;19934;-78
2023/05/14 08:34:51;;;;;;;;;;;11.30;99.90;;;;;;4986941;28;19989;-77
2023/05/14 08:39:47;;;;;;;;;;;11.30;99.90;;;;;;4967266;28;19926;-78
2023/05/14 08:42:15;;;;;;;;;;;11.30;99.90;;;;;;4954685;28;19930;-78
2023/05/14 08:44:47;;;;;;;;;;;11.30;99.90;;;;;;4946564;28;19986;-78
2023/05/14 08:47:15;;;;;;;;;;;11.30;99.90;;;;;;4952897;28;20422;-79
2023/05/14 08:49:45;;;;;;;;;;;11.30;99.90;;;;;;4946895;28;20206;-78
2023/05/14 08:52:12;;;;;;;;;;;11.30;99.90;;;;;;4948976;28;19951;-78
2023/05/14 08:54:40;;;;;;;;;;;11.30;99.90;;;;;;4951388;28;19927;-79
2023/05/14 08:57:09;;;;;;;;;;;11.30;99.90;;;;;;4950578;28;19942;-79
2023/05/14 08:59:36;;;;;;;;;;;11.30;99.90;;;;;;4950091;28;19934;-78
2023/05/14 09:02:05;;;;;;;;;;;11.30;99.90;;;;;;4951733;28;19934;-77
2023/05/14 09:04:32;;;;;;;;;;;11.30;99.90;;;;;;4967124;28;19941;-78
2023/05/14 09:07:01;;;;;;;;;;;11.30;99.90;;;;;;4945654;28;19982;-79
2023/05/14 09:09:28;;;;;;;;;;;11.40;99.90;;;;;;4948888;28;19946;-78
2023/05/14 09:11:55;;;;;;;;;;;11.40;99.90;;;;;;4949373;28;20564;-77
2023/05/14 09:14:22;;;;;;;;;;;11.40;99.90;;;;;;4956632;28;20345;-79
2023/05/14 09:16:50;;;;;;;;;;;11.40;99.90;;;;;;4954044;28;19941;-78
2023/05/14 09:19:17;;;;;;;;;;;11.40;99.90;;;;;;4954385;28;19982;-79
2023/05/14 09:21:45;;;;;;;;;;;11.40;99.90;;;;;;4955108;28;19927;-77
2023/05/14 09:24:20;;;;;;;;;;;11.50;99.90;;;;;;4969134;28;20408;-78
2023/05/14 09:26:50;;;;;;;;;;;11.50;99.90;;;;;;4954430;28;19973;-78
2023/05/14 09:29:17;;;;;;;;;;;11.50;99.90;;;;;;4953969;28;19981;-79
2023/05/14 09:31:43;;;;;;;;;;;11.50;99.90;;;;;;4950603;28;19959;-80
2023/05/14 09:34:10;;;;;;;;;;;11.50;99.90;;;;;;4949568;28;20037;-77
2023/05/14 09:36:38;;;;;;;;;;;11.50;99.90;;;;;;4955251;28;19926;-77
2023/05/14 09:39:05;;;;;;;;;;;11.50;99.90;;;;;;4949374;28;19931;-78
2023/05/14 09:41:34;;;;;;;;;;;11.60;99.90;;;;;;4947827;28;19953;-78
2023/05/14 09:44:04;;;;;;;;;;;11.60;99.90;;;;;;4946934;28;19934;-77
2023/05/14 09:46:31;;;;;;;;;;;11.60;99.90;;;;;;4952236;28;19926;-77
2023/05/14 09:48:58;;;;;;;;;;;11.60;99.90;;;;;;4943907;28;19934;-76
2023/05/14 09:51:25;;;;;;;;;;;11.60;99.90;;;;;;4950105;28;19930;-77
2023/05/14 09:53:52;;;;;;;;;;;11.60;99.90;;;;;;4947214;28;20881;-77
2023/05/14 09:56:20;;;;;;;;;;;11.60;99.90;;;;;;4949550;28;19958;-78
2023/05/14 09:58:48;;;;;;;;;;;11.70;99.90;;;;;;4948473;28;19958;-77
2023/05/14 10:01:17;;;;;;;;;;;11.70;99.90;;;;;;4947914;28;19926;-77
2023/05/14 10:03:45;;;;;;;;;;;11.70;99.90;;;;;;4949418;28;19934;-78
2023/05/14 10:06:13;;;;;;;;;;;11.70;99.90;;;;;;4944947;28;20397;-76
2023/05/14 10:08:50;;;;;;;;;;;11.70;99.90;;;;;;4945059;28;20005;-77
2023/05/14 10:11:19;;;;;;;;;;;11.70;99.90;;;;;;4948017;28;19934;-78
2023/05/14 10:13:51;;;;;;;;;;;11.80;99.90;;;;;;4950680;28;20413;-80
2023/05/14 10:16:23;;;;;;;;;;;11.80;99.90;;;;;;4947444;28;20051;-80
2023/05/14 10:18:54;;;;;;;;;;;11.80;99.90;;;;;;4945296;28;19926;-79
2023/05/14 10:21:22;;;;;;;;;;;11.80;99.90;;;;;;4947071;28;20381;-77
2023/05/14 10:23:50;;;;;;;;;;;11.80;99.90;;;;;;4949296;28;19962;-77
2023/05/14 10:26:20;;;;;;;;;;;11.80;99.90;;;;;;4945552;28;20415;-76
2023/05/14 10:28:47;;;;;;;;;;;11.90;99.90;;;;;;4951148;28;19958;-77
2023/05/14 10:31:14;;;;;;;;;;;11.90;99.90;;;;;;4938452;28;19927;-77
2023/05/14 10:33:49;;;;;;;;;;;11.90;99.90;;;;;;4947233;28;19981;-77
2023/05/14 10:36:16;;;;;;;;;;;11.90;99.90;;;;;;4937600;28;19931;-78
2023/05/14 10:38:44;;;;;;;;;;;11.90;99.90;;;;;;4945256;28;20108;-77
2023/05/14 10:41:16;;;;;;;;;;;11.90;99.90;;;;;;4949114;28;20043;-77
2023/05/14 10:43:44;;;;;;;;;;;11.90;99.90;;;;;;4946936;28;19941;-77
2023/05/14 10:46:13;;;;;;;;;;;12.00;99.90;;;;;;4950192;28;19934;-78
2023/05/14 10:48:41;;;;;;;;;;;12.00;99.90;;;;;;4946033;28;19930;-77
2023/05/14 10:51:10;;;;;;;;;;;12.00;99.90;;;;;;4963525;28;19934;-77
2023/05/14 10:53:38;;;;;;;;;;;12.00;99.90;;;;;;4956899;28;19931;-78
2023/05/14 10:56:06;;;;;;;;;;;12.10;99.90;;;;;;4944518;28;21696;-77
2023/05/14 10:58:35;;;;;;;;;;;12.10;99.90;;;;;;4945749;28;19934;-78
2023/05/14 11:01:02;;;;;;;;;;;12.10;99.90;;;;;;4946451;28;19934;-78
2023/05/14 11:03:33;;;;;;;;;;;12.10;99.90;;;;;;4948388;28;20360;-78
2023/05/14 11:06:03;;;;;;;;;;;12.10;99.90;;;;;;4949158;28;19948;-78
2023/05/14 11:08:32;;;;;;;;;;;12.20;99.90;;;;;;4951380;28;19936;-77
2023/05/14 11:10:59;;;;;;;;;;;12.20;99.90;;;;;;4953064;28;20035;-78
2023/05/14 11:13:26;;;;;;;;;;;12.20;99.90;;;;;;4953626;28;19930;-78
2023/05/14 11:15:53;;;;;;;;;;;12.20;99.90;;;;;;4951238;28;19950;-78
2023/05/14 11:18:27;;;;;;;;;;;12.20;99.90;;;;;;4947528;28;19927;-77
2023/05/14 11:20:54;;;;;;;;;;;12.30;99.90;;;;;;4964932;28;19933;-79
2023/05/14 11:23:23;;;;;;;;;;;12.30;99.90;;;;;;4951211;28;20440;-77
2023/05/14 11:25:53;;;;;;;;;;;12.30;99.90;;;;;;4967486;28;20013;-78
2023/05/14 11:28:21;;;;;;;;;;;12.40;99.90;;;;;;4952034;28;19936;-81
2023/05/14 11:30:48;;;;;;;;;;;12.40;99.90;;;;;;4954566;28;20449;-81
2023/05/14 11:33:15;;;;;;;;;;;12.40;99.90;;;;;;4950917;28;20002;-78
2023/05/14 11:35:44;;;;;;;;;;;12.50;99.90;;;;;;4950321;28;19996;-77
2023/05/14 11:38:14;;;;;;;;;;;12.50;99.90;;;;;;4954747;28;19935;-78
2023/05/14 11:40:41;;;;;;;;;;;12.50;99.90;;;;;;4954974;28;19957;-78
2023/05/14 11:43:09;;;;;;;;;;;12.50;99.90;;;;;;4949926;28;19933;-78
2023/05/14 11:45:36;;;;;;;;;;;12.60;99.90;;;;;;4950462;29;20024;-78
2023/05/14 11:48:11;;;;;;;;;;;12.60;99.90;;;;;;4952697;28;19933;-76
2023/05/14 11:50:39;;;;;;;;;;;12.60;99.90;;;;;;4951771;28;20337;-78
2023/05/14 11:53:06;;;;;;;;;;;12.60;99.90;;;;;;4953859;28;19974;-79
2023/05/14 11:55:34;;;;;;;;;;;12.60;99.90;;;;;;4957174;28;19943;-78
2023/05/14 11:58:00;;;;;;;;;;;12.70;99.90;;;;;;4955234;28;19948;-77
2023/05/14 12:00:30;;;;;;;;;;;12.80;99.90;;;;;;4948789;28;19954;-77
2023/05/14 12:02:57;;;;;;;;;;;13.00;99.90;;;;;;4949154;28;19934;-77
2023/05/14 12:05:24;;;;;;;;;;;13.10;99.90;;;;;;4949765;28;19935;-76
2023/05/14 12:07:50;;;;;;;;;;;13.20;99.90;;;;;;4951909;28;22167;-77
2023/05/14 12:10:17;;;;;;;;;;;13.10;99.90;;;;;;4950135;28;19990;-77
2023/05/14 12:12:48;;;;;;;;;;;13.00;99.90;;;;;;4952742;28;19970;-77
2023/05/14 12:15:16;;;;;;;;;;;13.10;99.90;;;;;;4954378;28;19926;-77
2023/05/14 12:17:49;;;;;;;;;;;13.00;99.90;;;;;;4967413;28;19930;-78
2023/05/14 12:20:17;;;;;;;;;;;13.10;99.90;;;;;;4958928;28;19927;-77
2023/05/14 12:22:45;;;;;;;;;;;13.10;99.90;;;;;;4948333;28;19930;-77
2023/05/14 12:25:14;;;;;;;;;;;13.10;99.90;;;;;;4950771;28;19927;-76
2023/05/14 12:27:44;;;;;;;;;;;13.10;99.90;;;;;;4948944;28;19962;-77
2023/05/14 12:30:12;;;;;;;;;;;13.10;99.90;;;;;;4967200;28;20360;-77
2023/05/14 12:32:39;;;;;;;;;;;13.20;99.90;;;;;;4950546;28;19950;-77
2023/05/14 12:35:09;;;;;;;;;;;13.20;99.90;;;;;;4952695;28;19931;-77
2023/05/14 12:37:38;;;;;;;;;;;13.20;99.90;;;;;;4952447;28;19934;-78
2023/05/14 12:40:07;;;;;;;;;;;13.20;99.90;;;;;;4953011;28;19995;-77
2023/05/14 12:42:35;;;;;;;;;;;13.30;99.90;;;;;;4947223;28;19927;-77
2023/05/14 12:45:05;;;;;;;;;;;13.30;99.90;;;;;;4949318;28;19950;-77
2023/05/14 12:47:32;;;;;;;;;;;13.30;99.90;;;;;;4951257;28;19965;-77
2023/05/14 12:50:00;;;;;;;;;;;13.30;99.90;;;;;;4950018;28;19934;-77
2023/05/14 12:52:30;;;;;;;;;;;13.30;99.90;;;;;;4954023;28;20386;-77
2023/05/14 12:54:56;;;;;;;;;;;13.30;99.90;;;;;;4951712;28;19954;-78
2023/05/14 12:57:23;;;;;;;;;;;13.40;99.90;;;;;;4950328;28;19935;-78
2023/05/14 12:59:50;;;;;;;;;;;13.50;99.90;;;;;;4950229;28;19938;-78
2023/05/14 13:02:17;;;;;;;;;;;13.50;99.90;;;;;;4953931;28;19931;-78
2023/05/14 13:04:45;;;;;;;;;;;13.50;99.90;;;;;;4950696;28;20444;-78
2023/05/14 13:07:12;;;;;;;;;;;13.50;99.90;;;;;;4953447;28;19932;-79
2023/05/14 13:09:40;;;;;;;;;;;13.50;99.90;;;;;;4952394;28;19951;-77
2023/05/14 13:12:09;;;;;;;;;;;13.60;99.90;;;;;;4953453;28;20426;-78
2023/05/14 13:14:37;;;;;;;;;;;13.60;99.90;;;;;;4952343;28;19934;-79
2023/05/14 13:17:04;;;;;;;;;;;13.60;99.90;;;;;;4955440;28;19934;-78
2023/05/14 13:19:31;;;;;;;;;;;13.60;99.90;;;;;;4945249;28;20365;-77
2023/05/14 13:21:58;;;;;;;;;;;13.60;99.90;;;;;;4951844;28;19926;-78
2023/05/14 13:24:25;;;;;;;;;;;13.70;99.90;;;;;;4950997;28;19940;-78
2023/05/14 13:26:53;;;;;;;;;;;13.70;99.90;;;;;;4952319;28;19926;-78
2023/05/14 13:29:20;;;;;;;;;;;13.80;99.90;;;;;;4955171;28;19965;-78
2023/05/14 13:31:47;;;;;;;;;;;13.80;99.90;;;;;;4950959;28;20397;-78
2023/05/14 13:34:14;;;;;;;;;;;13.80;99.90;;;;;;4947066;28;19930;-77
2023/05/14 13:36:42;;;;;;;;;;;13.80;99.90;;;;;;4953192;28;19930;-78
2023/05/14 13:39:10;;;;;;;;;;;13.80;99.90;;;;;;4953866;28;19930;-77
2023/05/14 13:41:37;;;;;;;;;;;13.80;99.90;;;;;;4953973;28;20524;-78
2023/05/14 13:44:19;;;;;;;;;;;13.90;99.90;;;;;;4948403;28;19934;-77
2023/05/14 13:46:46;;;;;;;;;;;13.80;99.90;;;;;;4951337;28;19932;-77
2023/05/14 13:49:13;;;;;;;;;;;13.90;99.90;;;;;;4963194;28;19938;-77
2023/05/14 13:51:40;;;;;;;;;;;13.90;99.90;;;;;;4949027;28;19938;-78
2023/05/14 13:54:07;;;;;;;;;;;13.90;99.90;;;;;;4970437;28;20542;-78
2023/05/14 13:56:33;;;;;;;;;;;13.90;99.90;;;;;;4969501;28;20017;-77
2023/05/14 13:59:00;;;;;;;;;;;13.90;99.90;;;;;;4950169;28;19965;-78
2023/05/14 14:01:29;;;;;;;;;;;14.00;99.90;;;;;;4951624;28;20579;-78
2023/05/14 14:03:56;;;;;;;;;;;14.00;99.90;;;;;;4954340;28;19926;-78
2023/05/14 14:06:23;;;;;;;;;;;13.90;99.90;;;;;;4956973;28;19938;-78
2023/05/14 14:08:50;;;;;;;;;;;14.00;99.90;;;;;;4952962;28;20608;-78
2023/05/14 14:11:18;;;;;;;;;;;14.00;99.90;;;;;;4956071;28;20013;-78
2023/05/14 14:13:44;;;;;;;;;;;14.00;99.90;;;;;;4956242;28;19927;-78
2023/05/14 14:16:11;;;;;;;;;;;14.00;99.90;;;;;;4949436;28;19927;-77
2023/05/14 14:18:41;;;;;;;;;;;14.00;99.90;;;;;;4949780;28;19927;-78
2023/05/14 14:21:09;;;;;;;;;;;14.00;99.90;;;;;;4955025;28;19926;-79